Search for airport 
image banner adimage banner ad
image banner ad

SEEH - Heliagro

Located in , Ecuador

ICAO - , IATA -

Data provided by Airmate  

General information

Coordinates: S1°49'56" W79°26'59"
Elevation is feet MSL.
 
View others Airports in Los Rios

Operational data

Open for public use
Current time UTC:
Current local time:
METAR: SEGU 280930Z 31003KT 250V360 2000 +RA SCT006 BKN020 OVC090 23/23 Q1009 TEMPO 3000 RMK A2982
TAF: SEGU 280445Z 2806/2906 20004KT 9999 FEW010 BKN023 OVC100 TEMPO 2811/2813 RA 8000 BECMG 2816/2818 04006KT SCT023 SCT100 BECMG 2823/2900 30004KT FEW010 BKN020 OVC100 TEMPO 2900/2902 RA 6000 TX31/2820Z TN24/2810Z
View NOTAMs / SUP AIP / TFR affecting this airport [VIEW]
Communications frequencies: [VIEW]

Runways:

Airport contact information

Address: Ecuador

Satellite view of SEEH